createdAt,value
2022-07-31T00:00:57.549Z,17.10
2022-07-31T00:02:00.621Z,17.10
2022-07-31T00:03:04.914Z,17.11
2022-07-31T00:04:08.060Z,17.10
2022-07-31T00:05:12.583Z,17.09
2022-07-31T00:06:15.664Z,17.09
2022-07-31T00:07:19.821Z,17.09
2022-07-31T00:08:22.889Z,17.10
2022-07-31T00:09:49.294Z,17.11
2022-07-31T00:10:56.585Z,17.10
2022-07-31T00:11:59.939Z,17.09
2022-07-31T00:13:04.023Z,17.09
2022-07-31T00:14:07.090Z,17.08
2022-07-31T00:15:12.813Z,17.07
2022-07-31T00:16:17.621Z,17.06
2022-07-31T00:17:22.018Z,17.07
2022-07-31T00:18:25.168Z,17.08
2022-07-31T00:19:29.443Z,17.09
2022-07-31T00:20:32.695Z,17.09
2022-07-31T00:21:36.970Z,17.08
2022-07-31T00:22:40.210Z,17.08
2022-07-31T00:23:44.572Z,17.08
2022-07-31T00:24:47.767Z,17.06
2022-07-31T00:27:12.174Z,17.05
2022-07-31T00:28:15.455Z,17.06
2022-07-31T00:29:21.961Z,17.05
2022-07-31T00:30:25.531Z,17.04
2022-07-31T00:31:31.397Z,17.02
2022-07-31T00:32:34.680Z,17.01
2022-07-31T00:33:38.765Z,17.00
2022-07-31T00:34:48.208Z,17.01
2022-07-31T00:35:52.369Z,17.01
2022-07-31T00:36:55.487Z,17.03
2022-07-31T00:38:25.674Z,17.02
2022-07-31T00:39:24.941Z,17.01
2022-07-31T00:40:28.130Z,17.03
2022-07-31T00:41:42.626Z,17.03
2022-07-31T00:42:46.135Z,17.02
2022-07-31T00:43:50.506Z,17.03
2022-07-31T00:44:53.691Z,17.04
2022-07-31T00:45:59.580Z,17.05
2022-07-31T00:47:04.981Z,17.05
2022-07-31T00:48:09.614Z,17.04
2022-07-31T00:49:14.094Z,17.05
2022-07-31T00:50:23.288Z,17.07
2022-07-31T00:51:27.647Z,17.06
2022-07-31T00:52:30.723Z,17.09
2022-07-31T00:53:35.058Z,17.11
2022-07-31T00:54:38.259Z,17.10
2022-07-31T00:55:51.047Z,17.09
2022-07-31T00:57:05.971Z,17.08
2022-07-31T00:58:09.573Z,17.07
2022-07-31T00:59:13.945Z,17.07
2022-07-31T01:00:21.188Z,17.06
2022-07-31T01:01:48.375Z,17.04
2022-07-31T01:02:53.141Z,17.03
2022-07-31T01:03:57.673Z,17.04
2022-07-31T01:05:00.743Z,17.03
2022-07-31T01:06:05.222Z,17.03
2022-07-31T01:07:08.673Z,17.04
2022-07-31T01:08:13.239Z,17.04
2022-07-31T01:09:17.059Z,17.06
2022-07-31T01:10:26.630Z,17.07
2022-07-31T01:11:36.803Z,17.04
2022-07-31T01:12:55.299Z,17.05
2022-07-31T01:14:02.361Z,17.03
2022-07-31T01:15:10.178Z,17.03
2022-07-31T01:16:15.381Z,17.04
2022-07-31T01:17:18.912Z,17.04
2022-07-31T01:18:25.959Z,17.04
2022-07-31T01:19:38.128Z,17.04
2022-07-31T01:20:48.642Z,17.03
2022-07-31T01:22:02.430Z,17.03
2022-07-31T01:23:34.823Z,17.03
2022-07-31T01:25:09.779Z,16.99
2022-07-31T01:26:24.476Z,16.99
2022-07-31T01:27:55.770Z,17.00
2022-07-31T01:29:16.723Z,17.00
2022-07-31T01:30:30.442Z,17.01
2022-07-31T01:31:37.442Z,17.02
2022-07-31T01:32:46.534Z,17.03
2022-07-31T01:33:55.529Z,17.03
2022-07-31T01:35:03.191Z,17.03
2022-07-31T01:36:21.310Z,17.04
2022-07-31T01:37:39.890Z,17.05
2022-07-31T01:38:46.645Z,17.05
2022-07-31T01:39:55.990Z,17.05
2022-07-31T01:41:02.149Z,17.06
2022-07-31T01:42:08.625Z,17.06
2022-07-31T01:43:16.760Z,17.07
2022-07-31T01:44:23.759Z,17.09
2022-07-31T01:45:28.321Z,17.08
2022-07-31T01:46:37.297Z,17.08
2022-07-31T01:47:45.991Z,17.07
2022-07-31T01:48:50.630Z,17.07
2022-07-31T01:49:56.549Z,17.07
2022-07-31T01:51:01.887Z,17.06
2022-07-31T01:52:08.138Z,17.06
2022-07-31T01:53:13.905Z,17.06
2022-07-31T01:54:20.087Z,17.07
2022-07-31T01:55:25.221Z,17.07
2022-07-31T01:56:31.581Z,17.08
2022-07-31T01:57:36.345Z,17.07
2022-07-31T01:58:42.213Z,17.08
2022-07-31T02:00:03.697Z,17.09
2022-07-31T02:01:27.096Z,17.07
2022-07-31T02:02:32.913Z,17.07
2022-07-31T02:03:43.599Z,17.08
2022-07-31T02:04:52.100Z,17.09
2022-07-31T02:05:55.529Z,17.09
2022-07-31T02:07:01.842Z,17.08
2022-07-31T02:08:06.939Z,17.07
2022-07-31T02:09:13.170Z,17.07
2022-07-31T02:10:16.577Z,17.05
2022-07-31T02:11:22.684Z,17.02
2022-07-31T02:12:32.307Z,17.00
2022-07-31T02:13:39.341Z,16.99
2022-07-31T02:14:43.394Z,16.98
2022-07-31T02:15:50.380Z,16.96
2022-07-31T02:16:56.871Z,16.95
2022-07-31T02:18:14.283Z,16.93
2022-07-31T02:19:31.268Z,16.91
2022-07-31T02:20:34.799Z,16.91
2022-07-31T02:21:39.682Z,16.90
2022-07-31T02:22:42.780Z,16.88
2022-07-31T02:23:46.922Z,16.84
2022-07-31T02:24:49.952Z,16.82
2022-07-31T02:25:54.162Z,16.80
2022-07-31T02:27:00.854Z,16.79
2022-07-31T02:28:08.361Z,16.77
2022-07-31T02:29:19.703Z,16.76
2022-07-31T02:30:24.342Z,16.73
2022-07-31T02:31:33.117Z,16.71
2022-07-31T02:32:36.610Z,16.68
2022-07-31T02:33:41.579Z,16.68
2022-07-31T02:34:45.364Z,16.67
2022-07-31T02:35:50.972Z,16.66
2022-07-31T02:36:54.182Z,16.63
2022-07-31T02:38:00.092Z,16.62
2022-07-31T02:39:03.683Z,16.60
2022-07-31T02:40:13.781Z,16.58
2022-07-31T02:41:17.793Z,16.57
2022-07-31T02:42:23.083Z,16.54
2022-07-31T02:43:27.004Z,16.53
2022-07-31T02:44:34.990Z,16.51
2022-07-31T02:45:38.853Z,16.49
2022-07-31T02:46:45.282Z,16.46
2022-07-31T02:47:48.651Z,16.44
2022-07-31T02:48:54.194Z,16.43
2022-07-31T02:49:59.153Z,16.40
2022-07-31T02:51:03.368Z,16.39
2022-07-31T02:52:07.424Z,16.37
2022-07-31T02:53:11.721Z,16.36
2022-07-31T02:54:15.935Z,16.36
2022-07-31T02:55:20.012Z,16.34
2022-07-31T02:56:24.480Z,16.33
2022-07-31T02:57:28.580Z,16.33
2022-07-31T02:58:32.991Z,16.32
2022-07-31T02:59:37.252Z,16.32
2022-07-31T03:00:41.542Z,16.32
2022-07-31T03:01:47.289Z,16.30
2022-07-31T03:02:51.692Z,16.29
2022-07-31T03:03:54.752Z,16.28
2022-07-31T03:04:58.865Z,16.28
2022-07-31T03:06:02.114Z,16.26
2022-07-31T03:07:06.434Z,16.24
2022-07-31T03:08:10.027Z,16.22
2022-07-31T03:09:17.832Z,16.21
2022-07-31T03:10:22.850Z,16.20
2022-07-31T03:11:42.212Z,16.17
2022-07-31T03:12:47.722Z,16.17
2022-07-31T03:13:55.062Z,16.17
2022-07-31T03:14:58.632Z,16.16
2022-07-31T03:16:03.353Z,16.15
2022-07-31T03:17:08.909Z,16.15
2022-07-31T03:18:15.139Z,16.14
2022-07-31T03:19:19.150Z,16.14
2022-07-31T03:20:24.155Z,16.14
2022-07-31T03:21:27.423Z,16.14
2022-07-31T03:22:31.822Z,16.14
2022-07-31T03:23:36.705Z,16.14
2022-07-31T03:24:56.363Z,16.14
2022-07-31T03:26:01.174Z,16.14
2022-07-31T03:27:05.455Z,16.12
2022-07-31T03:28:09.373Z,16.12
2022-07-31T03:29:43.328Z,16.11
2022-07-31T03:30:37.082Z,16.11
2022-07-31T03:31:41.561Z,16.11
2022-07-31T03:32:46.212Z,16.10
2022-07-31T03:33:50.389Z,16.10
2022-07-31T03:34:53.465Z,16.11
2022-07-31T03:35:58.180Z,16.12
2022-07-31T03:37:02.376Z,16.13
2022-07-31T03:38:39.015Z,16.14
2022-07-31T03:39:31.251Z,16.11
2022-07-31T03:40:37.625Z,16.11
2022-07-31T03:41:41.772Z,16.11
2022-07-31T03:42:45.321Z,16.10
2022-07-31T03:43:49.854Z,16.10
2022-07-31T03:44:57.009Z,16.10
2022-07-31T03:46:00.592Z,16.11
2022-07-31T03:47:05.641Z,16.12
2022-07-31T03:48:10.711Z,16.11
2022-07-31T03:49:15.954Z,16.11
2022-07-31T03:50:19.883Z,16.11
2022-07-31T03:51:24.297Z,16.10
2022-07-31T03:52:27.915Z,16.10
2022-07-31T03:53:33.211Z,16.11
2022-07-31T03:54:37.352Z,16.11
2022-07-31T03:55:56.493Z,16.10
2022-07-31T03:57:00.040Z,16.08
2022-07-31T03:58:04.932Z,16.08
2022-07-31T03:59:11.694Z,16.06
2022-07-31T04:00:20.699Z,16.05
2022-07-31T04:01:24.293Z,16.06
2022-07-31T04:02:32.839Z,16.06
2022-07-31T04:04:01.449Z,16.05
2022-07-31T04:05:10.838Z,16.03
2022-07-31T04:06:17.161Z,16.01
2022-07-31T04:07:21.031Z,16.01
2022-07-31T04:08:25.183Z,15.99
2022-07-31T04:09:28.267Z,15.99
2022-07-31T04:10:33.271Z,15.99
2022-07-31T04:11:36.415Z,15.99
2022-07-31T04:12:42.653Z,15.98
2022-07-31T04:13:45.813Z,15.99
2022-07-31T04:14:49.965Z,15.98
2022-07-31T04:15:54.981Z,15.97
2022-07-31T04:16:58.372Z,15.98
2022-07-31T04:18:03.613Z,15.99
2022-07-31T04:19:14.049Z,15.99
2022-07-31T04:20:18.772Z,15.97
2022-07-31T04:21:21.817Z,15.94
2022-07-31T04:22:26.061Z,15.93
2022-07-31T04:23:32.507Z,15.93
2022-07-31T04:25:07.593Z,15.93
2022-07-31T04:26:31.274Z,15.92
2022-07-31T04:27:48.502Z,15.89
2022-07-31T04:28:53.122Z,15.88
2022-07-31T04:29:57.970Z,15.87
2022-07-31T04:31:00.997Z,15.88
2022-07-31T04:32:07.871Z,15.91
2022-07-31T04:33:26.140Z,15.91
2022-07-31T04:34:31.793Z,15.91
2022-07-31T04:35:34.842Z,15.90
2022-07-31T04:36:39.829Z,15.89
2022-07-31T04:37:48.039Z,15.91
2022-07-31T04:38:53.420Z,15.91
2022-07-31T04:39:58.543Z,15.92
2022-07-31T04:41:01.722Z,15.91
2022-07-31T04:42:10.880Z,15.90
2022-07-31T04:43:14.427Z,15.89
2022-07-31T04:44:18.573Z,15.87
2022-07-31T04:45:31.934Z,15.84
2022-07-31T04:46:35.062Z,15.83
2022-07-31T04:47:39.356Z,15.82
2022-07-31T04:48:43.564Z,15.82
2022-07-31T04:49:51.114Z,15.81
2022-07-31T04:50:54.213Z,15.80
2022-07-31T04:51:58.750Z,15.79
2022-07-31T04:53:01.791Z,15.79
2022-07-31T04:54:12.283Z,15.77
2022-07-31T04:55:15.431Z,15.75
2022-07-31T04:56:36.258Z,15.76
2022-07-31T04:57:40.522Z,15.74
2022-07-31T04:58:44.460Z,15.77
2022-07-31T05:00:00.572Z,15.77
2022-07-31T05:01:08.455Z,15.78
2022-07-31T05:02:13.927Z,15.78
2022-07-31T05:03:16.984Z,15.76
2022-07-31T05:04:21.929Z,15.78
2022-07-31T05:05:26.392Z,15.80
2022-07-31T05:06:37.871Z,15.82
2022-07-31T05:07:42.283Z,15.82
2022-07-31T05:08:52.094Z,15.84
2022-07-31T05:09:57.752Z,15.84
2022-07-31T05:11:19.271Z,15.83
2022-07-31T05:12:23.434Z,15.82
2022-07-31T05:13:26.533Z,15.81
2022-07-31T05:14:30.666Z,15.83
2022-07-31T05:15:33.758Z,15.85
2022-07-31T05:16:38.321Z,15.87
2022-07-31T05:17:41.433Z,15.88
2022-07-31T05:19:14.582Z,15.87
2022-07-31T05:20:50.156Z,15.83
2022-07-31T05:22:09.552Z,15.82
2022-07-31T05:23:16.461Z,15.80
2022-07-31T05:24:39.431Z,15.80
2022-07-31T05:25:44.313Z,15.83
2022-07-31T05:26:48.493Z,15.84
2022-07-31T05:27:51.522Z,15.84
2022-07-31T05:28:58.537Z,15.84
2022-07-31T05:30:02.812Z,15.83
2022-07-31T05:31:08.630Z,15.83
2022-07-31T05:32:12.909Z,15.83
2022-07-31T05:33:16.404Z,15.84
2022-07-31T05:34:21.021Z,15.85
2022-07-31T05:35:25.894Z,15.86
2022-07-31T05:36:31.752Z,15.86
2022-07-31T05:37:35.833Z,15.87
2022-07-31T05:38:40.874Z,15.87
2022-07-31T05:40:05.853Z,15.86
2022-07-31T05:41:28.591Z,15.87
2022-07-31T05:42:41.821Z,15.86
2022-07-31T05:44:00.290Z,15.85
2022-07-31T05:45:10.469Z,15.86
2022-07-31T05:46:14.741Z,15.86
2022-07-31T05:47:18.834Z,15.87
2022-07-31T05:48:22.143Z,15.88
2022-07-31T05:49:27.086Z,15.88
2022-07-31T05:50:31.512Z,15.87
2022-07-31T05:51:37.031Z,15.88
2022-07-31T05:52:40.270Z,15.87
2022-07-31T05:54:07.724Z,15.88
2022-07-31T05:55:30.033Z,15.87
2022-07-31T05:56:53.387Z,15.84
2022-07-31T05:58:02.592Z,15.80
2022-07-31T05:59:07.296Z,15.80
2022-07-31T06:00:12.083Z,15.78
2022-07-31T06:01:18.527Z,15.76
2022-07-31T06:02:21.746Z,15.76
2022-07-31T06:03:52.690Z,15.73
2022-07-31T06:05:19.883Z,15.71
2022-07-31T06:06:23.074Z,15.68
2022-07-31T06:07:28.994Z,15.68
2022-07-31T06:08:34.081Z,15.68
2022-07-31T06:09:37.752Z,15.68
2022-07-31T06:10:42.064Z,15.68
2022-07-31T06:11:45.463Z,15.66
2022-07-31T06:12:50.414Z,15.63
2022-07-31T06:13:54.810Z,15.61
2022-07-31T06:15:05.273Z,15.59
2022-07-31T06:16:15.047Z,15.59
2022-07-31T06:17:18.192Z,15.59
2022-07-31T06:18:22.373Z,15.59
2022-07-31T06:19:26.240Z,15.59
2022-07-31T06:20:30.752Z,15.57
2022-07-31T06:21:35.253Z,15.57
2022-07-31T06:22:40.678Z,15.59
2022-07-31T06:23:45.043Z,15.60
2022-07-31T06:25:11.762Z,15.58
2022-07-31T06:26:18.376Z,15.55
2022-07-31T06:27:33.211Z,15.56
2022-07-31T06:28:47.968Z,15.56
2022-07-31T06:29:53.913Z,15.55
2022-07-31T06:30:58.083Z,15.55
2022-07-31T06:32:01.719Z,15.56
2022-07-31T06:33:08.333Z,15.56
2022-07-31T06:34:15.170Z,15.56
2022-07-31T06:35:22.371Z,15.55
2022-07-31T06:36:44.014Z,15.57
2022-07-31T06:37:53.640Z,15.58
2022-07-31T06:38:56.837Z,15.57
2022-07-31T06:40:03.802Z,15.58
2022-07-31T06:41:40.053Z,15.60
2022-07-31T06:43:06.743Z,15.58
2022-07-31T06:44:34.181Z,15.56
2022-07-31T06:45:56.523Z,15.53
2022-07-31T06:47:18.863Z,15.54
2022-07-31T06:48:32.095Z,15.55
2022-07-31T06:49:44.655Z,15.56
2022-07-31T06:50:49.151Z,15.56
2022-07-31T06:52:13.633Z,15.56
2022-07-31T06:53:19.197Z,15.56
2022-07-31T06:54:22.343Z,15.57
2022-07-31T06:55:32.288Z,15.60
2022-07-31T06:56:36.841Z,15.65
2022-07-31T06:57:41.180Z,15.66
2022-07-31T06:58:44.422Z,15.63
2022-07-31T06:59:49.506Z,15.61
2022-07-31T07:00:54.103Z,15.60
2022-07-31T07:01:57.263Z,15.57
2022-07-31T07:03:01.486Z,15.55
2022-07-31T07:04:04.704Z,15.51
2022-07-31T07:05:09.600Z,15.49
2022-07-31T07:06:13.152Z,15.49
2022-07-31T07:07:20.025Z,15.48
2022-07-31T07:08:27.806Z,15.46
2022-07-31T07:09:30.853Z,15.44
2022-07-31T07:10:34.931Z,15.42
2022-07-31T07:11:58.238Z,15.40
2022-07-31T07:13:03.695Z,15.40
2022-07-31T07:14:11.566Z,15.40
2022-07-31T07:15:15.825Z,15.40
2022-07-31T07:16:18.923Z,15.40
2022-07-31T07:17:28.579Z,15.41
2022-07-31T07:18:32.313Z,15.42
2022-07-31T07:19:41.443Z,15.42
2022-07-31T07:20:45.582Z,15.43
2022-07-31T07:21:49.802Z,15.45
2022-07-31T07:22:53.055Z,15.48
2022-07-31T07:24:14.191Z,15.49
2022-07-31T07:25:41.174Z,15.46
2022-07-31T07:26:47.152Z,15.45
2022-07-31T07:27:51.391Z,15.44
2022-07-31T07:28:54.413Z,15.45
2022-07-31T07:29:58.664Z,15.46
2022-07-31T07:31:01.997Z,15.48
2022-07-31T07:32:07.347Z,15.48
2022-07-31T07:33:10.510Z,15.49
2022-07-31T07:34:14.722Z,15.51
2022-07-31T07:35:17.873Z,15.53
2022-07-31T07:36:28.021Z,15.55
2022-07-31T07:37:40.603Z,15.57
2022-07-31T07:38:45.023Z,15.59
2022-07-31T07:39:50.564Z,15.63
2022-07-31T07:40:53.716Z,15.63
2022-07-31T07:41:57.821Z,15.61
2022-07-31T07:43:03.135Z,15.57
2022-07-31T07:44:08.733Z,15.53
2022-07-31T07:45:13.984Z,15.53
2022-07-31T07:46:17.201Z,15.52
2022-07-31T07:47:27.141Z,15.54
2022-07-31T07:48:52.276Z,15.64
2022-07-31T07:50:10.793Z,15.56
2022-07-31T07:51:34.807Z,15.51
2022-07-31T07:53:05.179Z,15.49
2022-07-31T07:54:27.769Z,15.50
2022-07-31T07:55:52.027Z,15.50
2022-07-31T07:57:16.371Z,15.53
2022-07-31T07:58:38.958Z,15.56
2022-07-31T08:00:04.063Z,15.58
2022-07-31T08:01:26.943Z,15.60
2022-07-31T08:02:35.730Z,15.60
2022-07-31T08:03:48.307Z,15.65
2022-07-31T08:04:54.651Z,15.68
2022-07-31T08:05:58.822Z,15.68
2022-07-31T08:07:04.324Z,15.68
2022-07-31T08:08:11.746Z,15.65
2022-07-31T08:09:24.823Z,15.65
2022-07-31T08:10:47.535Z,15.67
2022-07-31T08:11:58.271Z,15.72
2022-07-31T08:13:24.272Z,15.69
2022-07-31T08:14:54.623Z,15.70
2022-07-31T08:16:17.304Z,15.68
2022-07-31T08:17:25.588Z,15.65
2022-07-31T08:18:30.202Z,15.63
2022-07-31T08:19:34.282Z,15.66
2022-07-31T08:20:38.430Z,15.69
2022-07-31T08:21:43.155Z,15.71
2022-07-31T08:22:46.293Z,15.71
2022-07-31T08:23:50.705Z,15.73
2022-07-31T08:24:53.779Z,15.76
2022-07-31T08:25:57.993Z,15.78
2022-07-31T08:27:39.604Z,15.80
2022-07-31T08:28:50.557Z,15.78
2022-07-31T08:30:00.413Z,15.73
2022-07-31T08:31:06.345Z,15.70
2022-07-31T08:32:19.766Z,15.65
2022-07-31T08:33:44.046Z,15.60
2022-07-31T08:34:47.036Z,15.58
2022-07-31T08:35:51.402Z,15.56
2022-07-31T08:36:55.814Z,15.56
2022-07-31T08:38:01.995Z,15.56
2022-07-31T08:39:07.094Z,15.57
2022-07-31T08:40:27.146Z,15.57
2022-07-31T08:41:32.999Z,15.58
2022-07-31T08:42:38.679Z,15.56
2022-07-31T08:44:01.648Z,15.56
2022-07-31T08:45:07.988Z,15.56
2022-07-31T08:46:15.754Z,15.56
2022-07-31T08:47:23.133Z,15.58
2022-07-31T08:48:29.783Z,15.58
2022-07-31T08:49:34.347Z,15.58
2022-07-31T08:50:41.608Z,15.59
2022-07-31T08:51:55.862Z,15.62
2022-07-31T08:53:18.731Z,15.63
2022-07-31T08:54:35.782Z,15.66
2022-07-31T08:55:56.992Z,15.69
2022-07-31T08:57:05.370Z,15.72
2022-07-31T08:58:20.463Z,15.75
2022-07-31T08:59:24.618Z,15.74
2022-07-31T09:00:29.043Z,15.75
2022-07-31T09:01:34.876Z,15.76
2022-07-31T09:02:39.878Z,15.77
2022-07-31T09:04:00.431Z,15.76
2022-07-31T09:05:05.345Z,15.71
2022-07-31T09:06:09.990Z,15.66
2022-07-31T09:07:15.822Z,15.66
2022-07-31T09:08:21.167Z,15.66
2022-07-31T09:09:51.226Z,15.67
2022-07-31T09:10:51.072Z,15.67
2022-07-31T09:11:55.452Z,15.67
2022-07-31T09:13:20.781Z,15.65
2022-07-31T09:14:28.268Z,15.66
2022-07-31T09:15:34.534Z,15.65
2022-07-31T09:16:46.248Z,15.63
2022-07-31T09:17:54.018Z,15.61
2022-07-31T09:18:58.694Z,15.61
2022-07-31T09:20:02.942Z,15.63
2022-07-31T09:21:10.854Z,15.64
2022-07-31T09:22:21.301Z,15.65
2022-07-31T09:23:27.961Z,15.65
2022-07-31T09:24:36.936Z,15.60
2022-07-31T09:25:53.463Z,15.58
2022-07-31T09:27:05.456Z,15.59
2022-07-31T09:28:11.862Z,15.60
2022-07-31T09:29:17.502Z,15.62
2022-07-31T09:30:22.190Z,15.64
2022-07-31T09:31:34.391Z,15.68
2022-07-31T09:32:57.522Z,15.70
2022-07-31T09:34:30.821Z,15.74
2022-07-31T09:35:55.065Z,15.74
2022-07-31T09:37:09.479Z,15.73
2022-07-31T09:38:33.565Z,15.71
2022-07-31T09:40:13.886Z,15.70
2022-07-31T09:41:58.087Z,15.68
2022-07-31T09:43:25.813Z,15.67
2022-07-31T09:44:40.480Z,15.70
2022-07-31T09:45:48.004Z,15.72
2022-07-31T09:46:52.755Z,15.75
2022-07-31T09:48:08.478Z,15.81
2022-07-31T09:49:16.090Z,15.82
2022-07-31T09:50:25.705Z,15.82
2022-07-31T09:51:38.481Z,15.84
2022-07-31T09:52:42.822Z,15.86
2022-07-31T09:53:47.079Z,15.88
2022-07-31T09:55:17.026Z,15.86
2022-07-31T09:56:30.786Z,15.83
2022-07-31T09:57:37.864Z,15.81
2022-07-31T09:58:44.363Z,15.78
2022-07-31T09:59:50.182Z,15.75
2022-07-31T10:00:56.731Z,15.74
2022-07-31T10:02:01.702Z,15.71
2022-07-31T10:03:06.241Z,15.72
2022-07-31T10:04:12.790Z,15.73
2022-07-31T10:05:17.321Z,15.75
2022-07-31T10:06:21.175Z,15.79
2022-07-31T10:07:32.471Z,15.81
2022-07-31T10:08:54.313Z,15.86
2022-07-31T10:10:05.275Z,15.89
2022-07-31T10:11:28.172Z,15.88
2022-07-31T10:12:52.560Z,15.84
2022-07-31T10:13:58.761Z,15.86
2022-07-31T10:15:06.920Z,15.88
2022-07-31T10:16:11.116Z,15.89
2022-07-31T10:17:15.705Z,15.89
2022-07-31T10:18:58.498Z,15.91
2022-07-31T10:20:18.432Z,15.89
2022-07-31T10:21:43.363Z,15.92
2022-07-31T10:22:53.437Z,15.92
2022-07-31T10:24:02.429Z,15.93
2022-07-31T10:25:06.923Z,15.95
2022-07-31T10:26:11.445Z,15.96
2022-07-31T10:27:16.764Z,15.98
2022-07-31T10:28:21.283Z,15.99
2022-07-31T10:29:24.853Z,16.03
2022-07-31T10:30:30.501Z,16.03
2022-07-31T10:31:36.021Z,16.02
2022-07-31T10:32:40.430Z,16.02
2022-07-31T10:34:07.764Z,15.99
2022-07-31T10:35:30.971Z,15.93
2022-07-31T10:36:43.398Z,15.87
2022-07-31T10:38:20.185Z,15.80
2022-07-31T10:39:37.880Z,15.77
2022-07-31T10:40:51.657Z,15.78
2022-07-31T10:41:58.722Z,15.82
2022-07-31T10:43:21.873Z,15.84
2022-07-31T10:44:56.977Z,15.83
2022-07-31T10:46:30.154Z,15.85
2022-07-31T10:47:57.393Z,15.87
2022-07-31T10:49:20.059Z,15.86
2022-07-31T10:50:36.642Z,15.86
2022-07-31T10:51:54.693Z,15.88
2022-07-31T10:53:18.722Z,15.90
2022-07-31T10:54:45.150Z,15.90
2022-07-31T10:56:11.088Z,15.92
2022-07-31T10:57:56.203Z,15.93
2022-07-31T10:59:29.781Z,15.94
2022-07-31T11:01:09.004Z,15.93
2022-07-31T11:02:35.683Z,15.88
2022-07-31T11:04:07.642Z,15.88
2022-07-31T11:05:31.219Z,15.91
2022-07-31T11:07:21.427Z,15.95
2022-07-31T11:08:45.489Z,15.95
2022-07-31T11:10:11.580Z,15.97
2022-07-31T11:11:34.854Z,16.00
2022-07-31T11:13:01.431Z,15.99
2022-07-31T11:14:36.261Z,15.95
2022-07-31T11:16:04.482Z,15.90
2022-07-31T11:17:17.609Z,15.89
2022-07-31T11:19:04.066Z,15.90
2022-07-31T11:20:19.126Z,15.91
2022-07-31T11:21:38.547Z,15.88
2022-07-31T11:22:43.301Z,15.86
2022-07-31T11:23:56.471Z,15.82
2022-07-31T11:25:07.382Z,15.80
2022-07-31T11:26:10.555Z,15.78
2022-07-31T11:27:14.701Z,15.78
2022-07-31T11:28:21.640Z,15.80
2022-07-31T11:29:59.106Z,15.79
2022-07-31T11:30:57.203Z,15.78
2022-07-31T11:32:02.311Z,15.79
2022-07-31T11:33:06.480Z,15.81
2022-07-31T11:34:13.633Z,15.83
2022-07-31T11:35:31.575Z,15.85
2022-07-31T11:36:35.783Z,15.82
2022-07-31T11:37:56.961Z,15.82
2022-07-31T11:39:02.687Z,15.82
2022-07-31T11:40:09.444Z,15.86
2022-07-31T11:41:15.071Z,15.90
2022-07-31T11:42:19.141Z,15.92
2022-07-31T11:43:25.998Z,15.92
2022-07-31T11:44:33.032Z,15.88
2022-07-31T11:45:48.064Z,15.88
2022-07-31T11:46:52.680Z,15.87
2022-07-31T11:48:12.159Z,15.89
2022-07-31T11:49:44.153Z,15.92
2022-07-31T11:50:51.759Z,15.89
2022-07-31T11:52:02.500Z,15.87
2022-07-31T11:53:07.322Z,15.85
2022-07-31T11:54:12.519Z,15.84
2022-07-31T11:55:17.980Z,15.86
2022-07-31T11:56:23.328Z,15.86
2022-07-31T11:57:50.717Z,15.88
2022-07-31T11:58:58.452Z,15.90
2022-07-31T12:00:26.749Z,15.93
2022-07-31T12:01:33.807Z,15.93
2022-07-31T12:02:45.908Z,15.94
2022-07-31T12:03:53.922Z,15.97
2022-07-31T12:05:03.250Z,15.98
2022-07-31T12:06:10.157Z,16.02
2022-07-31T12:07:15.042Z,16.03
2022-07-31T12:08:20.748Z,16.05
2022-07-31T12:10:02.230Z,16.06
2022-07-31T12:10:50.291Z,16.04
2022-07-31T12:11:53.491Z,16.03
2022-07-31T12:12:57.602Z,16.03
2022-07-31T12:14:00.872Z,16.03
2022-07-31T12:15:16.559Z,16.02
2022-07-31T12:16:21.507Z,16.00
2022-07-31T12:17:24.553Z,16.00
2022-07-31T12:18:29.558Z,16.02
2022-07-31T12:19:37.481Z,16.02
2022-07-31T12:20:53.795Z,16.01
2022-07-31T12:21:58.392Z,15.99
2022-07-31T12:23:02.925Z,15.98
2022-07-31T12:24:12.893Z,15.98
2022-07-31T12:25:16.050Z,15.97
2022-07-31T12:26:24.916Z,15.96
2022-07-31T12:27:28.044Z,15.95
2022-07-31T12:28:32.210Z,15.96
2022-07-31T12:29:37.846Z,15.97
2022-07-31T12:30:41.653Z,15.98
2022-07-31T12:31:47.518Z,15.98
2022-07-31T12:32:50.921Z,15.97
2022-07-31T12:33:55.343Z,15.98
2022-07-31T12:35:02.585Z,15.98
2022-07-31T12:36:15.361Z,16.00
2022-07-31T12:37:22.512Z,16.00
2022-07-31T12:38:45.761Z,16.00
2022-07-31T12:40:00.730Z,15.98
2022-07-31T12:41:05.916Z,15.96
2022-07-31T12:42:10.405Z,15.96
2022-07-31T12:43:14.959Z,15.97
2022-07-31T12:44:22.385Z,15.98
2022-07-31T12:45:35.512Z,15.99
2022-07-31T12:46:38.963Z,15.98
2022-07-31T12:47:43.763Z,15.99
2022-07-31T12:48:48.779Z,15.99
2022-07-31T12:49:54.008Z,16.01
2022-07-31T12:50:57.133Z,16.02
2022-07-31T12:52:04.412Z,16.02
2022-07-31T12:53:08.353Z,16.00
2022-07-31T12:54:14.490Z,16.00
2022-07-31T12:55:18.083Z,16.00
2022-07-31T12:56:23.405Z,16.01
2022-07-31T12:57:26.955Z,16.01
2022-07-31T12:58:31.712Z,16.00
2022-07-31T12:59:37.387Z,16.00
2022-07-31T13:00:43.030Z,16.02
2022-07-31T13:01:47.451Z,16.05
2022-07-31T13:02:53.113Z,16.07
2022-07-31T13:04:00.616Z,16.05
2022-07-31T13:05:07.461Z,16.07
2022-07-31T13:06:11.811Z,16.06
2022-07-31T13:07:16.532Z,16.08
2022-07-31T13:08:22.691Z,16.07
2022-07-31T13:09:25.853Z,16.08
2022-07-31T13:10:32.172Z,16.08
2022-07-31T13:11:48.103Z,16.07
2022-07-31T13:12:54.216Z,16.07
2022-07-31T13:14:14.558Z,16.07
2022-07-31T13:15:22.782Z,16.10
2022-07-31T13:16:26.702Z,16.11
2022-07-31T13:17:31.160Z,16.11
2022-07-31T13:18:35.847Z,16.11
2022-07-31T13:19:40.882Z,16.13
2022-07-31T13:20:44.113Z,16.14
2022-07-31T13:21:50.255Z,16.17
2022-07-31T13:22:56.152Z,16.20
2022-07-31T13:24:00.805Z,16.22
2022-07-31T13:25:05.672Z,16.20
2022-07-31T13:26:09.949Z,16.21
2022-07-31T13:27:13.314Z,16.22
2022-07-31T13:28:17.400Z,16.22
2022-07-31T13:29:21.251Z,16.20
2022-07-31T13:30:25.316Z,16.19
2022-07-31T13:31:29.967Z,16.17
2022-07-31T13:32:34.242Z,16.16
2022-07-31T13:33:37.925Z,16.17
2022-07-31T13:34:42.320Z,16.15
2022-07-31T13:35:46.365Z,16.17
2022-07-31T13:36:49.641Z,16.18
2022-07-31T13:37:54.603Z,16.17
2022-07-31T13:38:59.127Z,16.18
2022-07-31T13:40:03.550Z,16.19
2022-07-31T13:41:21.546Z,16.20
2022-07-31T13:42:29.743Z,16.20
2022-07-31T13:43:32.974Z,16.18
2022-07-31T13:44:37.233Z,16.18
2022-07-31T13:45:40.267Z,16.20
2022-07-31T13:46:44.421Z,16.19
2022-07-31T13:47:51.711Z,16.20
2022-07-31T13:48:59.568Z,16.21
2022-07-31T13:50:05.963Z,16.23
2022-07-31T13:51:10.215Z,16.26
2022-07-31T13:52:14.410Z,16.28
2022-07-31T13:53:17.451Z,16.30
2022-07-31T13:54:23.000Z,16.32
2022-07-31T13:55:26.274Z,16.33
2022-07-31T13:56:36.713Z,16.34
2022-07-31T13:57:45.531Z,16.33
2022-07-31T13:58:49.751Z,16.33
2022-07-31T13:59:54.407Z,16.34
2022-07-31T14:01:04.257Z,16.36
2022-07-31T14:02:09.159Z,16.35
2022-07-31T14:03:13.112Z,16.33
2022-07-31T14:04:23.876Z,16.32
2022-07-31T14:05:27.911Z,16.33
2022-07-31T14:06:32.050Z,16.35
2022-07-31T14:07:44.918Z,16.38
2022-07-31T14:08:50.673Z,16.38
2022-07-31T14:09:55.730Z,16.41
2022-07-31T14:10:59.981Z,16.40
2022-07-31T14:12:05.832Z,16.41
2022-07-31T14:13:09.032Z,16.44
2022-07-31T14:14:13.277Z,16.45
2022-07-31T14:15:26.310Z,16.48
2022-07-31T14:16:33.059Z,16.47
2022-07-31T14:17:37.211Z,16.49
2022-07-31T14:18:41.391Z,16.50
2022-07-31T14:19:45.503Z,16.52
2022-07-31T14:20:48.519Z,16.53
2022-07-31T14:21:56.793Z,16.52
2022-07-31T14:23:00.450Z,16.52
2022-07-31T14:24:04.818Z,16.51
2022-07-31T14:25:10.232Z,16.52
2022-07-31T14:26:14.406Z,16.53
2022-07-31T14:27:17.574Z,16.54
2022-07-31T14:28:21.733Z,16.53
2022-07-31T14:29:26.919Z,16.52
2022-07-31T14:30:30.017Z,16.49
2022-07-31T14:31:34.199Z,16.47
2022-07-31T14:32:41.236Z,16.47
2022-07-31T14:33:45.389Z,16.46
2022-07-31T14:34:48.587Z,16.46
2022-07-31T14:35:54.661Z,16.45
2022-07-31T14:36:58.422Z,16.45
2022-07-31T14:38:04.424Z,16.45
2022-07-31T14:39:07.708Z,16.44
2022-07-31T14:40:14.499Z,16.45
2022-07-31T14:41:17.609Z,16.42
2022-07-31T14:42:25.586Z,16.40
2022-07-31T14:43:31.003Z,16.40
2022-07-31T14:44:34.042Z,16.39
2022-07-31T14:45:50.024Z,16.40
2022-07-31T14:46:55.602Z,16.39
2022-07-31T14:47:58.712Z,16.39
2022-07-31T14:49:03.088Z,16.39
2022-07-31T14:50:12.054Z,16.39
2022-07-31T14:51:20.813Z,16.42
2022-07-31T14:52:23.931Z,16.44